createdAt,value
2018-07-08T00:00:11.776Z,0
2018-07-08T00:01:21.849Z,0
2018-07-08T00:02:31.944Z,0
2018-07-08T00:03:41.749Z,0
2018-07-08T00:04:51.822Z,0
2018-07-08T00:06:01.928Z,0
2018-07-08T00:07:11.455Z,0
2018-07-08T00:08:21.526Z,0
2018-07-08T00:09:31.056Z,0
2018-07-08T00:10:41.143Z,0
2018-07-08T00:11:50.984Z,0
2018-07-08T00:13:01.053Z,0
2018-07-08T00:14:11.130Z,0
2018-07-08T00:15:20.916Z,0
2018-07-08T00:16:30.991Z,0
2018-07-08T00:17:41.098Z,0
2018-07-08T00:18:51.222Z,0
2018-07-08T00:20:01.307Z,0
2018-07-08T00:21:11.101Z,0
2018-07-08T00:22:21.168Z,0
2018-07-08T00:23:31.291Z,4
2018-07-08T00:24:41.354Z,4
2018-07-08T00:25:51.429Z,4
2018-07-08T00:27:01.228Z,4
2018-07-08T00:28:10.223Z,4
2018-07-08T00:29:20.336Z,4
2018-07-08T00:30:30.401Z,4
2018-07-08T00:31:40.452Z,4
2018-07-08T00:32:50.244Z,0
2018-07-08T00:34:00.046Z,0
2018-07-08T00:35:10.176Z,0
2018-07-08T00:36:20.253Z,0
2018-07-08T00:37:30.049Z,0
2018-07-08T00:38:40.117Z,0
2018-07-08T00:39:50.337Z,4
2018-07-08T00:41:00.371Z,4
2018-07-08T00:42:09.369Z,4
2018-07-08T00:43:19.181Z,4
2018-07-08T00:44:29.271Z,4
2018-07-08T00:45:39.076Z,4
2018-07-08T00:46:48.928Z,0
2018-07-08T00:47:58.724Z,4
2018-07-08T00:49:08.256Z,4
2018-07-08T00:50:18.321Z,4
2018-07-08T00:51:27.576Z,4
2018-07-08T00:52:37.420Z,4
2018-07-08T00:53:47.210Z,8
2018-07-08T00:54:56.734Z,4
2018-07-08T00:56:06.553Z,4
2018-07-08T00:57:16.060Z,8
2018-07-08T00:58:25.920Z,8
2018-07-08T00:59:35.730Z,4
2018-07-08T01:00:45.811Z,8
2018-07-08T01:01:55.992Z,8
2018-07-08T01:03:05.794Z,8
2018-07-08T01:04:15.947Z,8
2018-07-08T01:05:26.019Z,12
2018-07-08T01:06:35.841Z,8
2018-07-08T01:07:45.368Z,12
2018-07-08T01:08:55.642Z,12
2018-07-08T01:10:05.748Z,12
2018-07-08T01:11:15.573Z,12
2018-07-08T01:12:25.112Z,12
2018-07-08T01:13:34.899Z,12
2018-07-08T01:14:44.688Z,12
2018-07-08T01:15:54.529Z,20
2018-07-08T01:17:04.311Z,20
2018-07-08T01:18:14.095Z,20
2018-07-08T01:19:23.937Z,20
2018-07-08T01:20:33.742Z,20
2018-07-08T01:21:43.590Z,24
2018-07-08T01:22:53.137Z,24
2018-07-08T01:24:03.240Z,28
2018-07-08T01:25:13.048Z,28
2018-07-08T01:26:23.122Z,32
2018-07-08T01:27:32.695Z,32
2018-07-08T01:28:42.505Z,36
2018-07-08T01:29:52.327Z,36
2018-07-08T01:31:02.411Z,44
2018-07-08T01:32:12.482Z,44
2018-07-08T01:33:22.329Z,48
2018-07-08T01:34:32.456Z,52
2018-07-08T01:35:42.523Z,52
2018-07-08T01:36:52.325Z,56
2018-07-08T01:38:02.176Z,60
2018-07-08T01:39:12.034Z,64
2018-07-08T01:40:22.087Z,68
2018-07-08T01:41:31.888Z,76
2018-07-08T01:42:41.956Z,76
2018-07-08T01:43:52.019Z,80
2018-07-08T01:45:02.129Z,84
2018-07-08T01:46:11.932Z,92
2018-07-08T01:47:22.005Z,96
2018-07-08T01:48:31.798Z,104
2018-07-08T01:49:41.859Z,108
2018-07-08T01:50:51.431Z,112
2018-07-08T01:52:01.218Z,120
2018-07-08T01:53:11.285Z,124
2018-07-08T01:54:20.822Z,136
2018-07-08T01:55:30.881Z,140
2018-07-08T01:56:40.737Z,148
2018-07-08T01:57:50.810Z,156
2018-07-08T01:59:00.878Z,164
2018-07-08T02:00:10.410Z,172
2018-07-08T02:01:20.209Z,184
2018-07-08T02:02:37.432Z,192
2018-07-08T02:03:47.229Z,200
2018-07-08T02:04:57.277Z,212
2018-07-08T02:06:07.073Z,224
2018-07-08T02:07:17.150Z,232
2018-07-08T02:08:26.987Z,244
2018-07-08T02:09:36.510Z,256
2018-07-08T02:10:46.331Z,268
2018-07-08T02:11:55.851Z,284
2018-07-08T02:13:05.102Z,300
2018-07-08T02:14:14.675Z,316
2018-07-08T02:15:24.193Z,328
2018-07-08T02:16:34.276Z,348
2018-07-08T02:17:44.352Z,364
2018-07-08T02:18:54.411Z,380
2018-07-08T02:20:04.542Z,400
2018-07-08T02:21:14.350Z,420
2018-07-08T02:22:23.885Z,432
2018-07-08T02:23:33.982Z,452
2018-07-08T02:24:44.129Z,472
2018-07-08T02:25:54.240Z,492
2018-07-08T02:27:04.029Z,512
2018-07-08T02:28:13.823Z,536
2018-07-08T02:29:23.347Z,556
2018-07-08T02:30:32.352Z,584
2018-07-08T02:31:42.496Z,608
2018-07-08T02:32:52.298Z,632
2018-07-08T02:34:02.125Z,660
2018-07-08T02:35:12.233Z,692
2018-07-08T02:36:22.314Z,716
2018-07-08T02:37:32.453Z,744
2018-07-08T02:38:42.247Z,764
2018-07-08T02:39:52.040Z,788
2018-07-08T02:41:02.112Z,812
2018-07-08T02:42:12.191Z,836
2018-07-08T02:43:22.308Z,860
2018-07-08T02:44:32.369Z,884
2018-07-08T02:45:42.434Z,904
2018-07-08T02:46:51.984Z,928
2018-07-08T02:48:02.092Z,952
2018-07-08T02:49:11.966Z,976
2018-07-08T02:50:22.075Z,996
2018-07-08T02:51:31.882Z,1016
2018-07-08T02:52:41.681Z,1032
2018-07-08T02:53:51.761Z,1060
2018-07-08T02:55:01.886Z,1088
2018-07-08T02:56:11.969Z,1120
2018-07-08T02:57:22.036Z,1144
2018-07-08T02:58:31.831Z,1168
2018-07-08T02:59:41.892Z,1192
2018-07-08T03:03:43.388Z,1276
2018-07-08T03:04:53.185Z,1296
2018-07-08T03:06:02.705Z,1320
2018-07-08T03:07:12.769Z,1340
2018-07-08T03:08:22.843Z,1360
2018-07-08T03:09:32.702Z,1380
2018-07-08T03:10:42.509Z,1404
2018-07-08T03:11:52.045Z,1424
2018-07-08T03:13:01.844Z,1448
2018-07-08T03:14:11.376Z,1472
2018-07-08T03:15:21.225Z,1496
2018-07-08T03:16:31.029Z,1520
2018-07-08T03:17:41.138Z,1548
2018-07-08T03:18:51.228Z,1568
2018-07-08T03:20:01.333Z,1596
2018-07-08T03:21:10.918Z,1620
2018-07-08T03:22:20.458Z,1640
2018-07-08T03:23:30.248Z,1664
2018-07-08T03:24:40.320Z,1688
2018-07-08T03:25:49.596Z,1708
2018-07-08T03:26:59.705Z,1728
2018-07-08T03:28:09.509Z,1748
2018-07-08T03:29:19.566Z,1768
2018-07-08T03:30:29.354Z,1784
2018-07-08T03:31:39.448Z,1808
2018-07-08T03:32:49.557Z,1824
2018-07-08T03:33:59.353Z,1844
2018-07-08T03:35:08.601Z,1860
2018-07-08T03:36:18.677Z,1876
2018-07-08T03:37:28.750Z,1896
2018-07-08T03:38:38.610Z,1916
2018-07-08T03:39:48.137Z,1928
2018-07-08T03:40:57.648Z,1944
2018-07-08T03:42:07.439Z,1956
2018-07-08T03:43:17.500Z,1972
2018-07-08T03:44:27.361Z,1988
2018-07-08T03:45:37.413Z,2004
2018-07-08T03:46:47.466Z,2016
2018-07-08T03:47:57.267Z,2032
2018-07-08T03:49:07.075Z,2044
2018-07-08T03:50:17.200Z,2052
2018-07-08T03:51:27.002Z,2060
2018-07-08T03:52:36.522Z,2072
2018-07-08T03:53:46.331Z,2088
2018-07-08T03:54:55.852Z,2104
2018-07-08T03:56:05.445Z,2116
2018-07-08T03:57:14.950Z,2136
2018-07-08T03:58:25.018Z,2152
2018-07-08T03:59:34.816Z,2172
2018-07-08T04:00:44.882Z,2184
2018-07-08T04:01:54.992Z,2208
2018-07-08T04:03:04.518Z,2224
2018-07-08T04:04:14.329Z,2244
2018-07-08T04:05:23.586Z,2256
2018-07-08T04:06:33.125Z,2268
2018-07-08T04:07:42.956Z,2280
2018-07-08T04:08:53.041Z,2288
2018-07-08T04:10:02.825Z,2296
2018-07-08T04:11:12.883Z,2300
2018-07-08T04:12:22.684Z,2308
2018-07-08T04:13:32.809Z,2312
2018-07-08T04:14:42.884Z,2324
2018-07-08T04:15:52.677Z,2328
2018-07-08T04:17:02.482Z,2328
2018-07-08T04:18:11.741Z,2324
2018-07-08T04:19:21.326Z,2336
2018-07-08T04:20:30.852Z,2340
2018-07-08T04:21:40.664Z,2336
2018-07-08T04:22:50.724Z,2344
2018-07-08T04:24:00.545Z,2352
2018-07-08T04:25:10.681Z,2364
2018-07-08T04:26:20.753Z,2356
2018-07-08T04:27:30.829Z,2348
2018-07-08T04:28:40.617Z,2340
2018-07-08T04:29:50.695Z,2332
2018-07-08T04:31:00.561Z,2312
2018-07-08T04:32:10.369Z,2312
2018-07-08T04:33:19.914Z,2332
2018-07-08T04:34:29.456Z,2292
2018-07-08T04:35:39.532Z,2304
2018-07-08T04:36:49.395Z,2384
2018-07-08T04:37:59.190Z,2464
2018-07-08T04:39:09.001Z,2500
2018-07-08T04:40:18.797Z,2532
2018-07-08T04:41:28.329Z,2548
2018-07-08T04:42:38.455Z,2560
2018-07-08T04:43:48.535Z,2564
2018-07-08T04:44:58.609Z,2572
2018-07-08T04:46:08.680Z,2572
2018-07-08T04:47:18.469Z,2568
2018-07-08T04:48:28.337Z,2560
2018-07-08T04:49:38.408Z,2528
2018-07-08T04:50:48.201Z,2324
2018-07-08T04:51:58.250Z,2436
2018-07-08T04:53:08.054Z,2524
2018-07-08T04:54:18.169Z,2596
2018-07-08T04:55:27.961Z,2632
2018-07-08T04:56:38.024Z,2604
2018-07-08T04:57:48.090Z,2624
2018-07-08T04:58:57.889Z,2656
2018-07-08T05:00:07.999Z,2680
2018-07-08T05:01:18.075Z,2680
2018-07-08T05:02:28.141Z,2708
2018-07-08T05:03:37.921Z,2728
2018-07-08T05:04:48.008Z,2740
2018-07-08T05:05:58.131Z,2756
2018-07-08T05:07:07.918Z,2768
2018-07-08T05:08:17.467Z,2752
2018-07-08T05:09:27.540Z,2684
2018-07-08T05:10:37.082Z,2752
2018-07-08T05:11:46.933Z,2776
2018-07-08T05:12:56.450Z,2812
2018-07-08T05:14:06.256Z,2824
2018-07-08T05:15:16.040Z,2832
2018-07-08T05:16:25.879Z,2840
2018-07-08T05:17:35.741Z,2852
2018-07-08T05:18:45.257Z,2856
2018-07-08T05:19:55.324Z,2868
2018-07-08T05:21:05.112Z,2872
2018-07-08T05:22:14.368Z,2884
2018-07-08T05:23:24.218Z,2892
2018-07-08T05:24:33.217Z,2900
2018-07-08T05:25:43.016Z,2908
2018-07-08T05:26:53.095Z,2920
2018-07-08T05:28:02.899Z,2924
2018-07-08T05:29:12.749Z,2928
2018-07-08T05:30:22.263Z,2940
2018-07-08T05:31:31.789Z,2936
2018-07-08T05:32:41.592Z,2944
2018-07-08T05:33:50.577Z,2956
2018-07-08T05:35:00.696Z,2964
2018-07-08T05:36:09.981Z,2964
2018-07-08T05:37:20.035Z,2972
2018-07-08T05:38:30.105Z,2976
2018-07-08T05:39:39.629Z,2984
2018-07-08T05:40:49.479Z,2992
2018-07-08T05:41:59.001Z,3004
2018-07-08T05:43:08.540Z,3004
2018-07-08T05:44:18.069Z,3008
2018-07-08T05:45:28.129Z,3016
2018-07-08T05:46:37.978Z,3020
2018-07-08T05:47:47.783Z,3028
2018-07-08T05:48:57.312Z,3036
2018-07-08T05:50:07.457Z,3040
2018-07-08T05:51:17.032Z,3048
2018-07-08T05:52:27.153Z,3048
2018-07-08T05:53:36.941Z,3052
2018-07-08T05:54:47.015Z,3060
2018-07-08T05:55:56.812Z,3068
2018-07-08T05:57:06.346Z,3076
2018-07-08T05:58:16.478Z,3080
2018-07-08T05:59:26.534Z,3092
2018-07-08T06:00:36.328Z,3100
2018-07-08T06:01:46.402Z,3108
2018-07-08T06:02:56.220Z,3116
2018-07-08T06:04:05.812Z,3124
2018-07-08T06:05:15.617Z,3136
2018-07-08T06:06:25.428Z,3140
2018-07-08T06:07:35.234Z,3144
2018-07-08T06:08:45.354Z,3152
2018-07-08T06:09:54.927Z,3168
2018-07-08T06:11:04.717Z,3164
2018-07-08T06:12:14.524Z,3168
2018-07-08T06:13:24.593Z,3176
2018-07-08T06:14:34.405Z,3188
2018-07-08T06:15:44.000Z,3192
2018-07-08T06:16:54.157Z,3196
2018-07-08T06:18:04.088Z,3196
2018-07-08T06:19:13.874Z,3200
2018-07-08T06:20:23.673Z,3212
2018-07-08T06:21:33.568Z,3220
2018-07-08T06:22:43.627Z,3228
2018-07-08T06:23:53.434Z,3232
2018-07-08T06:25:03.221Z,3236
2018-07-08T06:26:13.423Z,3244
2018-07-08T06:27:23.297Z,3244
2018-07-08T06:28:33.376Z,3264
2018-07-08T06:29:43.168Z,3264
2018-07-08T06:30:52.971Z,3272
2018-07-08T06:32:02.764Z,3280
2018-07-08T06:33:12.905Z,3288
2018-07-08T06:34:22.725Z,3296
2018-07-08T06:35:32.797Z,3304
2018-07-08T06:36:42.577Z,3324
2018-07-08T06:37:52.779Z,3340
2018-07-08T06:39:02.821Z,3344
2018-07-08T06:40:12.706Z,3348
2018-07-08T06:41:22.787Z,3360
2018-07-08T06:42:32.584Z,3364
2018-07-08T06:43:42.381Z,3368
2018-07-08T06:44:52.529Z,3372
2018-07-08T06:46:02.343Z,3380
2018-07-08T06:47:11.595Z,3388
2018-07-08T06:48:21.105Z,3396
2018-07-08T06:49:30.363Z,3404
2018-07-08T06:50:40.490Z,3416
2018-07-08T06:51:50.570Z,3416
2018-07-08T06:53:00.428Z,3416
2018-07-08T06:54:10.497Z,3420
2018-07-08T06:55:20.570Z,3424
2018-07-08T06:56:30.707Z,3432
2018-07-08T06:57:40.786Z,3444
2018-07-08T06:58:50.595Z,3452
2018-07-08T07:00:00.153Z,3452
2018-07-08T07:01:09.684Z,3456
2018-07-08T07:02:19.526Z,3464
2018-07-08T07:03:29.046Z,3468
2018-07-08T07:04:38.582Z,3488
2018-07-08T07:05:48.109Z,3496
2018-07-08T07:06:57.750Z,3508
2018-07-08T07:08:07.057Z,3516
2018-07-08T07:09:16.858Z,3524
2018-07-08T07:10:26.655Z,3540
2018-07-08T07:11:36.460Z,3552
2018-07-08T07:12:46.533Z,3564
2018-07-08T07:13:56.376Z,3568
2018-07-08T07:15:05.651Z,3584
2018-07-08T07:16:15.718Z,3600
2018-07-08T07:17:25.759Z,3612
2018-07-08T07:18:35.949Z,3632
2018-07-08T07:19:45.791Z,3640
2018-07-08T07:20:55.889Z,3644
2018-07-08T07:22:05.422Z,3664
2018-07-08T07:23:15.211Z,3680
2018-07-08T07:24:24.998Z,3692
2018-07-08T07:25:34.851Z,3704
2018-07-08T07:26:44.680Z,3712
2018-07-08T07:27:54.754Z,3728
2018-07-08T07:29:04.824Z,3748
2018-07-08T07:30:14.352Z,3764
2018-07-08T07:31:24.208Z,3780
2018-07-08T07:32:33.735Z,3804
2018-07-08T07:33:43.812Z,3824
2018-07-08T07:34:53.618Z,3860
2018-07-08T07:36:03.694Z,3880
2018-07-08T07:37:13.967Z,3912
2018-07-08T07:38:23.778Z,3936
2018-07-08T07:39:33.855Z,3960
2018-07-08T07:40:43.945Z,3996
2018-07-08T07:41:53.746Z,4032
2018-07-08T07:43:03.870Z,4080
2018-07-08T07:44:13.953Z,4124
2018-07-08T07:45:23.841Z,4160
2018-07-08T07:46:33.723Z,4208
2018-07-08T07:47:43.525Z,4252
2018-07-08T07:48:53.647Z,4300
2018-07-08T07:50:03.439Z,4356
2018-07-08T07:51:13.327Z,4400
2018-07-08T07:52:23.211Z,4436
2018-07-08T07:53:33.000Z,4480
2018-07-08T07:54:43.118Z,4524
2018-07-08T07:55:53.177Z,4556
2018-07-08T07:57:03.242Z,4608
2018-07-08T07:58:13.044Z,4652
2018-07-08T07:59:23.123Z,4704
2018-07-08T08:00:32.964Z,4764
2018-07-08T08:01:42.755Z,4824
2018-07-08T08:02:52.834Z,4888
2018-07-08T08:04:02.640Z,4948
2018-07-08T08:05:12.193Z,5004
2018-07-08T08:06:22.314Z,5052
2018-07-08T08:07:32.137Z,5012
2018-07-08T08:08:42.483Z,5132
2018-07-08T08:09:52.569Z,5188
2018-07-08T08:11:02.112Z,5256
2018-07-08T08:12:11.956Z,5340
2018-07-08T08:13:22.032Z,5404
2018-07-08T08:14:31.549Z,5472
2018-07-08T08:15:41.087Z,5500
2018-07-08T08:16:51.164Z,5468
2018-07-08T08:18:01.276Z,5500
2018-07-08T08:19:11.357Z,5456
2018-07-08T08:20:21.419Z,5396
2018-07-08T08:21:31.513Z,5384
2018-07-08T08:22:41.301Z,5332
2018-07-08T08:23:51.158Z,5324
2018-07-08T08:25:00.970Z,5292
2018-07-08T08:26:10.230Z,5212
2018-07-08T08:27:19.750Z,5212
2018-07-08T08:28:29.821Z,5000
2018-07-08T08:29:39.956Z,5072
2018-07-08T08:30:50.037Z,5112
2018-07-08T08:31:59.849Z,5040
2018-07-08T08:33:09.370Z,4976
2018-07-08T08:34:19.440Z,4988
2018-07-08T08:35:28.748Z,4976
2018-07-08T08:36:38.007Z,5136
2018-07-08T08:37:47.536Z,5140
2018-07-08T08:38:57.337Z,5108
2018-07-08T08:40:07.140Z,5052
2018-07-08T08:41:17.004Z,4972
2018-07-08T08:42:26.534Z,4896
2018-07-08T08:43:36.611Z,4804
2018-07-08T08:44:46.685Z,4760
2018-07-08T08:45:56.621Z,4716
2018-07-08T08:47:06.269Z,4720
2018-07-08T08:48:16.070Z,4708
2018-07-08T08:49:26.154Z,4696
2018-07-08T08:50:35.676Z,4700
2018-07-08T08:51:45.476Z,4656
2018-07-08T08:52:55.610Z,4596
2018-07-08T08:54:05.138Z,4524
2018-07-08T08:55:14.948Z,4480
2018-07-08T08:56:25.018Z,4440
2018-07-08T08:57:35.132Z,4428
2018-07-08T08:58:44.990Z,4424
2018-07-08T08:59:55.063Z,4412
2018-07-08T09:01:04.874Z,4408
2018-07-08T09:02:14.963Z,4356
2018-07-08T09:03:24.776Z,4292
2018-07-08T09:04:34.362Z,4260
2018-07-08T09:05:44.438Z,4252
2018-07-08T09:06:54.243Z,4244
2018-07-08T09:08:04.058Z,4344
2018-07-08T09:09:14.141Z,4372
2018-07-08T09:10:23.740Z,4380
2018-07-08T09:11:33.548Z,4408
2018-07-08T09:12:43.615Z,4440
2018-07-08T09:13:53.704Z,4460
2018-07-08T09:15:03.507Z,4468
2018-07-08T09:16:13.628Z,4476
2018-07-08T09:17:24.049Z,4488
2018-07-08T09:18:33.529Z,4504
2018-07-08T09:19:43.613Z,4520
2018-07-08T09:20:53.140Z,4532
2018-07-08T09:22:02.754Z,4548
2018-07-08T09:23:12.822Z,4560
2018-07-08T09:24:22.902Z,4564
2018-07-08T09:25:32.715Z,4588
2018-07-08T09:26:42.801Z,4592
2018-07-08T09:27:52.643Z,4600
2018-07-08T09:29:02.712Z,4604
2018-07-08T09:30:11.968Z,4612
2018-07-08T09:31:22.046Z,4624
2018-07-08T09:32:31.039Z,4636
2018-07-08T09:33:41.168Z,4644
2018-07-08T09:34:51.257Z,4660
2018-07-08T09:36:01.343Z,4656
2018-07-08T09:37:11.431Z,4664
2018-07-08T09:38:21.490Z,4680
2018-07-08T09:39:31.390Z,4692
2018-07-08T09:40:41.198Z,4708
2018-07-08T09:41:50.985Z,4724
2018-07-08T09:43:00.535Z,4736
2018-07-08T09:44:10.068Z,4752
2018-07-08T09:45:19.926Z,4752
2018-07-08T09:46:29.716Z,4768
2018-07-08T09:47:39.524Z,4780
2018-07-08T09:48:49.596Z,4796
2018-07-08T09:49:59.673Z,4808
2018-07-08T09:51:09.259Z,4824
2018-07-08T09:52:19.339Z,4836
2018-07-08T09:53:29.136Z,4852
2018-07-08T09:54:39.218Z,4872
2018-07-08T09:55:49.317Z,4876
2018-07-08T09:56:59.459Z,4888
2018-07-08T09:58:09.227Z,4892
2018-07-08T09:59:18.770Z,4904
2018-07-08T10:00:28.012Z,4916
2018-07-08T10:01:37.537Z,4928
2018-07-08T10:02:47.400Z,4940
2018-07-08T10:03:57.476Z,4952
2018-07-08T10:05:07.683Z,4960
2018-07-08T10:06:17.769Z,4968
2018-07-08T10:07:27.593Z,4988
2018-07-08T10:08:37.498Z,4988
2018-07-08T10:09:47.331Z,5000
2018-07-08T10:10:57.565Z,5008
2018-07-08T10:12:07.560Z,5020
2018-07-08T10:13:17.635Z,5028
2018-07-08T10:14:27.754Z,5056
2018-07-08T10:15:37.841Z,5068
2018-07-08T10:16:47.925Z,5088
2018-07-08T10:17:58.477Z,5108
2018-07-08T10:19:08.789Z,5124
2018-07-08T10:20:19.153Z,5148
2018-07-08T10:21:28.803Z,5164
2018-07-08T10:22:38.435Z,5184
2018-07-08T10:23:48.235Z,5200
2018-07-08T10:24:58.310Z,5228
2018-07-08T10:26:08.158Z,5244
2018-07-08T10:27:18.238Z,5280
2018-07-08T10:28:28.346Z,5292
2018-07-08T10:29:38.434Z,5328
2018-07-08T10:30:48.259Z,5356
2018-07-08T10:31:58.395Z,5400
2018-07-08T10:33:08.225Z,5440
2018-07-08T10:34:18.042Z,5476
2018-07-08T10:35:27.567Z,5520
2018-07-08T10:36:37.309Z,5596
2018-07-08T10:37:46.759Z,5708
2018-07-08T10:38:56.571Z,5828
2018-07-08T10:40:06.377Z,5912
2018-07-08T10:41:16.449Z,5992
2018-07-08T10:42:26.520Z,6060
2018-07-08T10:43:36.800Z,6156
2018-07-08T10:44:46.058Z,6320
2018-07-08T10:45:55.611Z,6496
2018-07-08T10:47:05.705Z,6708
2018-07-08T10:48:15.780Z,6964
2018-07-08T10:49:25.620Z,7244
2018-07-08T10:50:35.432Z,7476
2018-07-08T10:51:45.505Z,7608
2018-07-08T10:52:55.590Z,7628
2018-07-08T10:54:05.132Z,7652
2018-07-08T10:55:14.733Z,7692
2018-07-08T10:56:24.600Z,7868
2018-07-08T10:57:34.133Z,8228
2018-07-08T10:58:43.938Z,8716
2018-07-08T10:59:54.031Z,9088
2018-07-08T11:01:04.170Z,9356
2018-07-08T11:02:13.983Z,9612
2018-07-08T11:03:24.055Z,9824
2018-07-08T11:04:33.684Z,9844
2018-07-08T11:05:43.772Z,9684
2018-07-08T11:06:53.919Z,9716
2018-07-08T11:08:04.042Z,9740
2018-07-08T11:09:13.588Z,9916
2018-07-08T11:10:23.396Z,10392
2018-07-08T11:11:33.467Z,11080
2018-07-08T11:12:43.636Z,11832
2018-07-08T11:13:53.713Z,11848
2018-07-08T11:15:03.513Z,12484
2018-07-08T11:16:13.597Z,13000
2018-07-08T11:17:23.423Z,12632
2018-07-08T11:18:33.272Z,12928
2018-07-08T11:19:43.072Z,12788
2018-07-08T11:20:52.980Z,12576
2018-07-08T11:22:02.879Z,11052
2018-07-08T11:23:12.130Z,10664
2018-07-08T11:24:22.254Z,11012
2018-07-08T11:25:32.067Z,9500
2018-07-08T11:26:42.209Z,9092
2018-07-08T11:27:52.015Z,8208
2018-07-08T11:29:01.834Z,7256
2018-07-08T11:30:11.438Z,7108
2018-07-08T11:31:21.511Z,7092
2018-07-08T11:32:31.319Z,7380
2018-07-08T11:33:41.114Z,7060
2018-07-08T11:34:50.925Z,7132
2018-07-08T11:36:01.070Z,7196
2018-07-08T11:37:10.335Z,7924
2018-07-08T11:38:19.883Z,8168
2018-07-08T11:39:29.975Z,7984
2018-07-08T11:40:40.045Z,9280
2018-07-08T11:41:49.915Z,31072
2018-07-08T11:43:00.032Z,83968
2018-07-08T11:44:09.546Z,97088
2018-07-08T11:45:19.620Z,99040
2018-07-08T11:46:29.163Z,100128
2018-07-08T11:47:39.301Z,97312
2018-07-08T11:48:49.105Z,90208
2018-07-08T11:49:59.119Z,92288
2018-07-08T11:51:08.461Z,88864
2018-07-08T11:52:18.546Z,96224
2018-07-08T11:53:28.692Z,99680
2018-07-08T11:54:38.242Z,102592
2018-07-08T11:55:47.809Z,104640
2018-07-08T11:56:57.894Z,101088
2018-07-08T11:58:07.992Z,95520
2018-07-08T11:59:18.139Z,95328
2018-07-08T12:00:27.974Z,93024
2018-07-08T12:01:37.778Z,85728
2018-07-08T12:02:47.603Z,90048
2018-07-08T12:03:57.425Z,84704
2018-07-08T12:05:07.487Z,81504
2018-07-08T12:06:17.524Z,81376
2018-07-08T12:07:27.346Z,90016
2018-07-08T12:08:36.890Z,91488
2018-07-08T12:09:46.434Z,88544
2018-07-08T12:10:56.020Z,88832
2018-07-08T12:12:05.833Z,91072
2018-07-08T12:13:15.926Z,89760
2018-07-08T12:14:25.833Z,91136
2018-07-08T12:15:35.454Z,93504
2018-07-08T12:16:45.599Z,92224
2018-07-08T12:17:55.696Z,89760
2018-07-08T12:19:05.253Z,81120
2018-07-08T12:20:15.149Z,75968
2018-07-08T12:21:25.738Z,76832
2018-07-08T12:22:35.626Z,77024
2018-07-08T12:23:45.739Z,81824
2018-07-08T12:24:55.289Z,85760
2018-07-08T12:26:05.109Z,85824
2018-07-08T12:27:14.942Z,94688
2018-07-08T12:28:25.079Z,96352
2018-07-08T12:29:35.160Z,97920
2018-07-08T12:30:45.244Z,92448
2018-07-08T12:31:54.790Z,87264
2018-07-08T12:33:04.881Z,88512
2018-07-08T12:34:14.771Z,91040
2018-07-08T12:35:24.869Z,90592
2018-07-08T12:36:34.969Z,91424
2018-07-08T12:37:44.848Z,91168
2018-07-08T12:38:54.390Z,91360
2018-07-08T12:40:03.714Z,89792
2018-07-08T12:41:13.254Z,90464
2018-07-08T12:42:23.347Z,93344
2018-07-08T12:43:33.427Z,89344
2018-07-08T12:44:43.986Z,89472
2018-07-08T12:45:54.109Z,90528
2018-07-08T12:47:03.651Z,91744
2018-07-08T12:48:13.473Z,91936
2018-07-08T12:49:23.559Z,93280
2018-07-08T12:50:33.101Z,93216
2018-07-08T12:51:43.240Z,92448
2018-07-08T12:52:53.341Z,95584
2018-07-08T12:54:03.427Z,91264
2018-07-08T12:55:12.992Z,90496
2018-07-08T12:56:22.814Z,95584
2018-07-08T12:57:32.947Z,99040
2018-07-08T12:58:43.239Z,97408
2018-07-08T12:59:53.158Z,101280
2018-07-08T13:01:02.981Z,22880
2018-07-08T13:02:13.052Z,97056
2018-07-08T13:03:22.945Z,97792
2018-07-08T13:04:32.763Z,101856
2018-07-08T13:05:42.848Z,70016
2018-07-08T13:06:52.756Z,56832
2018-07-08T13:08:02.332Z,93344
2018-07-08T13:09:12.204Z,53696
2018-07-08T13:10:22.286Z,58848
2018-07-08T13:11:31.587Z,100896
2018-07-08T13:12:41.778Z,98784
2018-07-08T13:13:51.603Z,99264
2018-07-08T13:15:01.741Z,101664
2018-07-08T13:16:11.556Z,99392
2018-07-08T13:17:21.398Z,91840
2018-07-08T13:18:30.948Z,96544
2018-07-08T13:19:41.034Z,97056
2018-07-08T13:20:51.179Z,93440
2018-07-08T13:22:01.018Z,89760
2018-07-08T13:23:10.853Z,101376
2018-07-08T13:24:20.941Z,88320
2018-07-08T13:25:31.039Z,110016
2018-07-08T13:26:41.172Z,63456
2018-07-08T13:27:51.255Z,100416
2018-07-08T13:29:01.356Z,108960
2018-07-08T13:30:11.451Z,111008
2018-07-08T13:31:21.264Z,63840
2018-07-08T13:32:31.733Z,105664
2018-07-08T13:33:41.723Z,111104
2018-07-08T13:34:51.577Z,97312
2018-07-08T13:36:01.402Z,96544
2018-07-08T13:37:11.491Z,96960
2018-07-08T13:38:21.343Z,95680
2018-07-08T13:39:31.433Z,95744
2018-07-08T13:40:41.532Z,59904
2018-07-08T13:41:51.640Z,59040
2018-07-08T13:43:01.720Z,108896
2018-07-08T13:44:11.326Z,22560
2018-07-08T13:45:21.445Z,31232
2018-07-08T13:46:31.539Z,83936
2018-07-08T13:47:41.635Z,111424
2018-07-08T13:48:51.472Z,57760
2018-07-08T13:50:01.344Z,32032
2018-07-08T13:51:11.168Z,26720
2018-07-08T13:52:20.982Z,24064
2018-07-08T13:53:31.080Z,32704
2018-07-08T13:54:40.371Z,34880
2018-07-08T13:55:50.607Z,26912
2018-07-08T13:57:00.431Z,27168
2018-07-08T13:58:10.514Z,26144
2018-07-08T13:59:20.065Z,30976
2018-07-08T14:00:30.215Z,26592
2018-07-08T14:01:40.084Z,79456
2018-07-08T14:02:50.168Z,56640
2018-07-08T14:04:00.257Z,39584
2018-07-08T14:05:09.811Z,36032
2018-07-08T14:06:19.624Z,27904
2018-07-08T14:07:29.514Z,24640
2018-07-08T14:08:39.612Z,29376
2018-07-08T14:09:49.696Z,23776
2018-07-08T14:10:59.490Z,24928
2018-07-08T14:12:09.316Z,27072
2018-07-08T14:13:19.191Z,27776
2018-07-08T14:14:28.740Z,32320
2018-07-08T14:15:38.531Z,98464
2018-07-08T14:16:48.385Z,33696
2018-07-08T14:17:58.464Z,48736
2018-07-08T14:19:08.334Z,44448
2018-07-08T14:20:19.214Z,63456
2018-07-08T14:21:29.626Z,85344
2018-07-08T14:22:39.726Z,90272
2018-07-08T14:23:49.549Z,90240
2018-07-08T14:24:59.683Z,89696
2018-07-08T14:26:09.231Z,89728
2018-07-08T14:27:19.322Z,75712
2018-07-08T14:28:29.422Z,54432
2018-07-08T14:29:39.627Z,61216
2018-07-08T14:30:49.495Z,50144
2018-07-08T14:31:59.030Z,41152
2018-07-08T14:33:09.110Z,35712
2018-07-08T14:34:19.214Z,54656
2018-07-08T14:35:29.036Z,63168
2018-07-08T14:36:38.912Z,50400
2018-07-08T14:37:48.725Z,75392
2018-07-08T14:38:58.588Z,80864
2018-07-08T14:40:08.418Z,34240
2018-07-08T14:41:18.519Z,22080
2018-07-08T14:42:28.668Z,25600
2018-07-08T14:43:38.745Z,34240
2018-07-08T14:44:48.817Z,26112
2018-07-08T14:45:58.924Z,43680
2018-07-08T14:47:08.760Z,70912
2018-07-08T14:48:18.623Z,48928
2018-07-08T14:49:28.443Z,20448
2018-07-08T14:50:37.707Z,20480
2018-07-08T14:51:48.784Z,37920
2018-07-08T14:52:58.871Z,81888
2018-07-08T14:54:08.452Z,80608
2018-07-08T14:55:18.074Z,85728
2018-07-08T14:56:28.171Z,85504
2018-07-08T14:57:37.971Z,88288
2018-07-08T14:58:48.059Z,73472
2018-07-08T14:59:57.381Z,47488
2018-07-08T15:01:07.194Z,25440
2018-07-08T15:02:16.750Z,34464
2018-07-08T15:03:26.284Z,67200
2018-07-08T15:04:36.402Z,55008
2018-07-08T15:05:46.314Z,56832
2018-07-08T15:06:56.128Z,56352
2018-07-08T15:08:05.954Z,59072
2018-07-08T15:09:15.822Z,59968
2018-07-08T15:10:25.382Z,64032
2018-07-08T15:11:35.321Z,65024
2018-07-08T15:12:45.168Z,64064
2018-07-08T15:13:54.726Z,61120
2018-07-08T15:15:04.818Z,66400
2018-07-08T15:16:15.432Z,80672
2018-07-08T15:17:25.354Z,87040
2018-07-08T15:18:35.436Z,85568
2018-07-08T15:19:45.518Z,80160
2018-07-08T15:20:55.811Z,80928
2018-07-08T15:22:05.844Z,66464
2018-07-08T15:23:15.992Z,64576
2018-07-08T15:24:26.077Z,67264
2018-07-08T15:25:35.641Z,51584
2018-07-08T15:26:45.745Z,65792
2018-07-08T15:27:55.569Z,34464
2018-07-08T15:29:05.452Z,34752
2018-07-08T15:30:15.278Z,35776
2018-07-08T15:31:24.836Z,28448
2018-07-08T15:32:34.397Z,32480
2018-07-08T15:33:44.215Z,24992
2018-07-08T15:34:54.099Z,35712